sensor_id;sensor_type;location;lat;lon;timestamp;temperature;humidity
7046;DHT22;3564;53.326;10.356;2023-03-07T00:00:35;5.60;99.00
7046;DHT22;3564;53.326;10.356;2023-03-07T00:03:01;5.60;99.10
7046;DHT22;3564;53.326;10.356;2023-03-07T00:05:27;5.70;99.30
7046;DHT22;3564;53.326;10.356;2023-03-07T00:07:53;5.60;99.40
7046;DHT22;3564;53.326;10.356;2023-03-07T00:10:18;5.70;99.50
7046;DHT22;3564;53.326;10.356;2023-03-07T00:12:44;5.70;99.60
7046;DHT22;3564;53.326;10.356;2023-03-07T00:15:10;5.60;99.60
7046;DHT22;3564;53.326;10.356;2023-03-07T00:17:37;5.60;99.80
7046;DHT22;3564;53.326;10.356;2023-03-07T00:20:05;5.60;99.80
7046;DHT22;3564;53.326;10.356;2023-03-07T00:22:33;5.70;99.90
7046;DHT22;3564;53.326;10.356;2023-03-07T00:24:58;5.60;99.90
7046;DHT22;3564;53.326;10.356;2023-03-07T00:27:24;5.60;99.90
7046;DHT22;3564;53.326;10.356;2023-03-07T00:29:49;5.60;99.90
7046;DHT22;3564;53.326;10.356;2023-03-07T00:32:15;5.70;99.90
7046;DHT22;3564;53.326;10.356;2023-03-07T00:34:41;5.60;99.90
7046;DHT22;3564;53.326;10.356;2023-03-07T00:37:07;5.60;99.90
7046;DHT22;3564;53.326;10.356;2023-03-07T00:39:32;5.60;99.90
7046;DHT22;3564;53.326;10.356;2023-03-07T00:42:01;5.60;99.90
7046;DHT22;3564;53.326;10.356;2023-03-07T00:44:27;5.50;99.90
7046;DHT22;3564;53.326;10.356;2023-03-07T00:46:54;5.50;99.90
7046;DHT22;3564;53.326;10.356;2023-03-07T00:49:21;5.50;99.90
7046;DHT22;3564;53.326;10.356;2023-03-07T00:51:46;5.50;99.90
7046;DHT22;3564;53.326;10.356;2023-03-07T00:54:13;5.60;99.90
7046;DHT22;3564;53.326;10.356;2023-03-07T00:56:39;5.50;99.90
7046;DHT22;3564;53.326;10.356;2023-03-07T00:59:05;5.50;99.90
7046;DHT22;3564;53.326;10.356;2023-03-07T01:01:31;5.50;99.90
7046;DHT22;3564;53.326;10.356;2023-03-07T01:03:57;5.50;99.90
7046;DHT22;3564;53.326;10.356;2023-03-07T01:06:28;5.50;99.90
7046;DHT22;3564;53.326;10.356;2023-03-07T01:08:56;5.50;99.90
7046;DHT22;3564;53.326;10.356;2023-03-07T01:11:23;5.50;99.90
7046;DHT22;3564;53.326;10.356;2023-03-07T01:13:48;5.40;99.90
7046;DHT22;3564;53.326;10.356;2023-03-07T01:16:17;5.50;99.90
7046;DHT22;3564;53.326;10.356;2023-03-07T01:18:44;5.40;99.90
7046;DHT22;3564;53.326;10.356;2023-03-07T01:21:22;5.40;99.90
7046;DHT22;3564;53.326;10.356;2023-03-07T01:23:48;5.30;99.90
7046;DHT22;3564;53.326;10.356;2023-03-07T01:26:17;5.30;99.90
7046;DHT22;3564;53.326;10.356;2023-03-07T01:28:43;5.30;99.90
7046;DHT22;3564;53.326;10.356;2023-03-07T01:31:09;5.30;99.90
7046;DHT22;3564;53.326;10.356;2023-03-07T01:33:34;5.30;99.90
7046;DHT22;3564;53.326;10.356;2023-03-07T01:36:00;5.20;99.90
7046;DHT22;3564;53.326;10.356;2023-03-07T01:38:25;5.20;99.90
7046;DHT22;3564;53.326;10.356;2023-03-07T01:40:53;5.20;99.90
7046;DHT22;3564;53.326;10.356;2023-03-07T01:43:42;5.10;99.90
7046;DHT22;3564;53.326;10.356;2023-03-07T01:48:45;5.10;99.90
7046;DHT22;3564;53.326;10.356;2023-03-07T01:51:11;5.10;99.90
7046;DHT22;3564;53.326;10.356;2023-03-07T01:53:37;5.00;99.90
7046;DHT22;3564;53.326;10.356;2023-03-07T01:56:03;5.00;99.90
7046;DHT22;3564;53.326;10.356;2023-03-07T01:58:30;5.00;99.90
7046;DHT22;3564;53.326;10.356;2023-03-07T02:00:56;5.00;99.90
7046;DHT22;3564;53.326;10.356;2023-03-07T02:03:42;5.00;99.90
7046;DHT22;3564;53.326;10.356;2023-03-07T02:06:10;5.00;99.90
7046;DHT22;3564;53.326;10.356;2023-03-07T02:08:39;5.00;99.90
7046;DHT22;3564;53.326;10.356;2023-03-07T02:11:06;5.00;99.90
7046;DHT22;3564;53.326;10.356;2023-03-07T02:13:32;5.00;99.90
7046;DHT22;3564;53.326;10.356;2023-03-07T02:15:59;5.00;99.90
7046;DHT22;3564;53.326;10.356;2023-03-07T02:18:32;4.90;99.90
7046;DHT22;3564;53.326;10.356;2023-03-07T02:23:54;4.90;99.90
7046;DHT22;3564;53.326;10.356;2023-03-07T02:28:57;4.80;99.90
7046;DHT22;3564;53.326;10.356;2023-03-07T02:31:24;4.80;99.90
7046;DHT22;3564;53.326;10.356;2023-03-07T02:33:50;4.80;99.90
7046;DHT22;3564;53.326;10.356;2023-03-07T02:36:22;4.80;99.90
7046;DHT22;3564;53.326;10.356;2023-03-07T02:38:49;4.80;99.90
7046;DHT22;3564;53.326;10.356;2023-03-07T02:41:19;4.80;99.90
7046;DHT22;3564;53.326;10.356;2023-03-07T02:43:45;4.80;99.90
7046;DHT22;3564;53.326;10.356;2023-03-07T02:46:11;4.80;99.90
7046;DHT22;3564;53.326;10.356;2023-03-07T02:48:36;4.90;99.90
7046;DHT22;3564;53.326;10.356;2023-03-07T02:51:02;4.80;99.90
7046;DHT22;3564;53.326;10.356;2023-03-07T02:53:27;4.80;99.90
7046;DHT22;3564;53.326;10.356;2023-03-07T02:55:53;4.80;99.90
7046;DHT22;3564;53.326;10.356;2023-03-07T02:58:18;4.80;99.90
7046;DHT22;3564;53.326;10.356;2023-03-07T03:00:44;4.70;99.90
7046;DHT22;3564;53.326;10.356;2023-03-07T03:03:10;4.70;99.90
7046;DHT22;3564;53.326;10.356;2023-03-07T03:05:36;4.70;99.90
7046;DHT22;3564;53.326;10.356;2023-03-07T03:08:02;4.70;99.90
7046;DHT22;3564;53.326;10.356;2023-03-07T03:10:27;4.70;99.90
7046;DHT22;3564;53.326;10.356;2023-03-07T03:12:53;4.70;99.90
7046;DHT22;3564;53.326;10.356;2023-03-07T03:15:18;4.70;99.90
7046;DHT22;3564;53.326;10.356;2023-03-07T03:17:46;4.70;99.90
7046;DHT22;3564;53.326;10.356;2023-03-07T03:20:11;4.80;99.90
7046;DHT22;3564;53.326;10.356;2023-03-07T03:22:38;4.80;99.90
7046;DHT22;3564;53.326;10.356;2023-03-07T03:25:08;4.80;99.90
7046;DHT22;3564;53.326;10.356;2023-03-07T03:27:35;4.70;99.90
7046;DHT22;3564;53.326;10.356;2023-03-07T03:30:01;4.70;99.90
7046;DHT22;3564;53.326;10.356;2023-03-07T03:32:28;4.60;99.90
7046;DHT22;3564;53.326;10.356;2023-03-07T03:34:54;4.60;99.90
7046;DHT22;3564;53.326;10.356;2023-03-07T03:37:20;4.60;99.90
7046;DHT22;3564;53.326;10.356;2023-03-07T03:39:45;4.60;99.90
7046;DHT22;3564;53.326;10.356;2023-03-07T03:42:11;4.60;99.90
7046;DHT22;3564;53.326;10.356;2023-03-07T03:44:36;4.60;99.90
7046;DHT22;3564;53.326;10.356;2023-03-07T03:47:02;4.70;99.90
7046;DHT22;3564;53.326;10.356;2023-03-07T03:49:28;4.70;99.90
7046;DHT22;3564;53.326;10.356;2023-03-07T03:51:54;4.70;99.90
7046;DHT22;3564;53.326;10.356;2023-03-07T03:54:19;4.70;99.90
7046;DHT22;3564;53.326;10.356;2023-03-07T03:56:45;4.70;99.90
7046;DHT22;3564;53.326;10.356;2023-03-07T03:59:10;4.70;99.90
7046;DHT22;3564;53.326;10.356;2023-03-07T04:01:36;4.70;99.90
7046;DHT22;3564;53.326;10.356;2023-03-07T04:04:01;4.70;99.90
7046;DHT22;3564;53.326;10.356;2023-03-07T04:06:29;4.70;99.90
7046;DHT22;3564;53.326;10.356;2023-03-07T04:08:55;4.70;99.90
7046;DHT22;3564;53.326;10.356;2023-03-07T04:11:24;4.70;99.90
7046;DHT22;3564;53.326;10.356;2023-03-07T04:13:50;4.80;99.90
7046;DHT22;3564;53.326;10.356;2023-03-07T04:16:17;4.80;99.90
7046;DHT22;3564;53.326;10.356;2023-03-07T04:18:43;4.90;99.90
7046;DHT22;3564;53.326;10.356;2023-03-07T04:21:09;5.00;99.90
7046;DHT22;3564;53.326;10.356;2023-03-07T04:23:36;5.00;99.90
7046;DHT22;3564;53.326;10.356;2023-03-07T04:26:03;5.10;99.90
7046;DHT22;3564;53.326;10.356;2023-03-07T04:28:32;5.20;99.90
7046;DHT22;3564;53.326;10.356;2023-03-07T04:31:12;5.20;99.90
7046;DHT22;3564;53.326;10.356;2023-03-07T04:33:38;5.20;99.90
7046;DHT22;3564;53.326;10.356;2023-03-07T04:36:03;5.20;99.90
7046;DHT22;3564;53.326;10.356;2023-03-07T04:38:30;5.20;99.90
7046;DHT22;3564;53.326;10.356;2023-03-07T04:40:56;5.20;99.90
7046;DHT22;3564;53.326;10.356;2023-03-07T04:43:21;5.30;99.90
7046;DHT22;3564;53.326;10.356;2023-03-07T04:45:47;5.30;99.90
7046;DHT22;3564;53.326;10.356;2023-03-07T04:48:12;5.30;99.90
7046;DHT22;3564;53.326;10.356;2023-03-07T04:50:38;5.30;99.90
7046;DHT22;3564;53.326;10.356;2023-03-07T04:53:04;5.30;99.90
7046;DHT22;3564;53.326;10.356;2023-03-07T04:55:29;5.30;99.90
7046;DHT22;3564;53.326;10.356;2023-03-07T04:57:59;5.30;99.90
7046;DHT22;3564;53.326;10.356;2023-03-07T05:00:25;5.30;99.90
7046;DHT22;3564;53.326;10.356;2023-03-07T05:02:50;5.30;99.90
7046;DHT22;3564;53.326;10.356;2023-03-07T05:05:16;5.30;99.90
7046;DHT22;3564;53.326;10.356;2023-03-07T05:07:42;5.30;99.90
7046;DHT22;3564;53.326;10.356;2023-03-07T05:10:14;5.40;99.90
7046;DHT22;3564;53.326;10.356;2023-03-07T05:12:40;5.40;99.90
7046;DHT22;3564;53.326;10.356;2023-03-07T05:15:07;5.40;99.90
7046;DHT22;3564;53.326;10.356;2023-03-07T05:17:33;5.40;99.90
7046;DHT22;3564;53.326;10.356;2023-03-07T05:19:58;5.40;99.90
7046;DHT22;3564;53.326;10.356;2023-03-07T05:22:24;5.50;99.90
7046;DHT22;3564;53.326;10.356;2023-03-07T05:24:49;5.40;99.90
7046;DHT22;3564;53.326;10.356;2023-03-07T05:27:15;5.50;99.90
7046;DHT22;3564;53.326;10.356;2023-03-07T05:29:40;5.50;99.90
7046;DHT22;3564;53.326;10.356;2023-03-07T05:32:06;5.50;99.90
7046;DHT22;3564;53.326;10.356;2023-03-07T05:34:32;5.50;99.90
7046;DHT22;3564;53.326;10.356;2023-03-07T05:36:57;5.50;99.90
7046;DHT22;3564;53.326;10.356;2023-03-07T05:39:23;5.50;99.90
7046;DHT22;3564;53.326;10.356;2023-03-07T05:41:49;5.50;99.90
7046;DHT22;3564;53.326;10.356;2023-03-07T05:44:15;5.50;99.90
7046;DHT22;3564;53.326;10.356;2023-03-07T05:46:41;5.60;99.90
7046;DHT22;3564;53.326;10.356;2023-03-07T05:49:07;5.60;99.90
7046;DHT22;3564;53.326;10.356;2023-03-07T05:51:32;5.60;99.90
7046;DHT22;3564;53.326;10.356;2023-03-07T05:53:58;5.60;99.90
7046;DHT22;3564;53.326;10.356;2023-03-07T05:56:23;5.60;99.90
7046;DHT22;3564;53.326;10.356;2023-03-07T05:58:51;5.60;99.90
7046;DHT22;3564;53.326;10.356;2023-03-07T06:01:16;5.60;99.90
7046;DHT22;3564;53.326;10.356;2023-03-07T06:03:42;5.60;99.90
7046;DHT22;3564;53.326;10.356;2023-03-07T06:06:09;5.70;99.90
7046;DHT22;3564;53.326;10.356;2023-03-07T06:08:36;5.60;99.90
7046;DHT22;3564;53.326;10.356;2023-03-07T06:11:02;5.60;99.90
7046;DHT22;3564;53.326;10.356;2023-03-07T06:13:27;5.60;99.90
7046;DHT22;3564;53.326;10.356;2023-03-07T06:15:56;5.60;99.90
7046;DHT22;3564;53.326;10.356;2023-03-07T06:18:23;5.70;99.90
7046;DHT22;3564;53.326;10.356;2023-03-07T06:20:57;5.60;99.90
7046;DHT22;3564;53.326;10.356;2023-03-07T06:23:24;5.70;99.90
7046;DHT22;3564;53.326;10.356;2023-03-07T06:25:50;5.70;99.90
7046;DHT22;3564;53.326;10.356;2023-03-07T06:28:16;5.70;99.90
7046;DHT22;3564;53.326;10.356;2023-03-07T06:30:41;5.70;99.90
7046;DHT22;3564;53.326;10.356;2023-03-07T06:33:07;5.60;99.90
7046;DHT22;3564;53.326;10.356;2023-03-07T06:35:33;5.60;99.90
7046;DHT22;3564;53.326;10.356;2023-03-07T06:37:58;5.60;99.90
7046;DHT22;3564;53.326;10.356;2023-03-07T06:40:24;5.60;99.90
7046;DHT22;3564;53.326;10.356;2023-03-07T06:42:51;5.60;99.90
7046;DHT22;3564;53.326;10.356;2023-03-07T06:45:17;5.60;99.90
7046;DHT22;3564;53.326;10.356;2023-03-07T06:47:43;5.60;99.90
7046;DHT22;3564;53.326;10.356;2023-03-07T06:50:09;5.60;99.90
7046;DHT22;3564;53.326;10.356;2023-03-07T06:52:35;5.60;99.90
7046;DHT22;3564;53.326;10.356;2023-03-07T06:55:00;5.60;99.90
7046;DHT22;3564;53.326;10.356;2023-03-07T06:57:26;5.60;99.90
7046;DHT22;3564;53.326;10.356;2023-03-07T06:59:51;5.70;99.90
7046;DHT22;3564;53.326;10.356;2023-03-07T07:02:17;5.70;99.90
7046;DHT22;3564;53.326;10.356;2023-03-07T07:04:43;5.70;99.90
7046;DHT22;3564;53.326;10.356;2023-03-07T07:07:08;5.70;99.90
7046;DHT22;3564;53.326;10.356;2023-03-07T07:09:34;5.70;99.90
7046;DHT22;3564;53.326;10.356;2023-03-07T07:11:59;5.80;99.90
7046;DHT22;3564;53.326;10.356;2023-03-07T07:14:25;5.80;99.90
7046;DHT22;3564;53.326;10.356;2023-03-07T07:16:50;5.80;99.90
7046;DHT22;3564;53.326;10.356;2023-03-07T07:19:16;5.80;99.90
7046;DHT22;3564;53.326;10.356;2023-03-07T07:21:42;5.80;99.90
7046;DHT22;3564;53.326;10.356;2023-03-07T07:24:10;5.80;99.90
7046;DHT22;3564;53.326;10.356;2023-03-07T07:26:36;5.80;99.90
7046;DHT22;3564;53.326;10.356;2023-03-07T07:29:02;5.80;99.70
7046;DHT22;3564;53.326;10.356;2023-03-07T07:31:28;5.80;99.60
7046;DHT22;3564;53.326;10.356;2023-03-07T07:33:54;5.80;99.70
7046;DHT22;3564;53.326;10.356;2023-03-07T07:36:20;5.90;99.70
7046;DHT22;3564;53.326;10.356;2023-03-07T07:38:48;5.90;99.60
7046;DHT22;3564;53.326;10.356;2023-03-07T07:41:14;6.00;99.70
7046;DHT22;3564;53.326;10.356;2023-03-07T07:43:39;6.00;99.60
7046;DHT22;3564;53.326;10.356;2023-03-07T07:46:06;6.00;99.40
7046;DHT22;3564;53.326;10.356;2023-03-07T07:48:31;6.00;99.30
7046;DHT22;3564;53.326;10.356;2023-03-07T07:51:00;6.00;99.20
7046;DHT22;3564;53.326;10.356;2023-03-07T07:53:26;6.00;99.20
7046;DHT22;3564;53.326;10.356;2023-03-07T07:55:51;6.00;99.20
7046;DHT22;3564;53.326;10.356;2023-03-07T07:58:17;6.00;99.10
7046;DHT22;3564;53.326;10.356;2023-03-07T08:00:43;6.00;99.10
7046;DHT22;3564;53.326;10.356;2023-03-07T08:03:09;6.10;99.10
7046;DHT22;3564;53.326;10.356;2023-03-07T08:05:35;6.10;99.10
7046;DHT22;3564;53.326;10.356;2023-03-07T08:08:00;6.20;99.00
7046;DHT22;3564;53.326;10.356;2023-03-07T08:10:26;6.20;99.00
7046;DHT22;3564;53.326;10.356;2023-03-07T08:12:52;6.20;98.80
7046;DHT22;3564;53.326;10.356;2023-03-07T08:15:18;6.30;98.90
7046;DHT22;3564;53.326;10.356;2023-03-07T08:17:48;6.30;98.90
7046;DHT22;3564;53.326;10.356;2023-03-07T08:20:15;6.40;98.80
7046;DHT22;3564;53.326;10.356;2023-03-07T08:22:41;6.40;98.70
7046;DHT22;3564;53.326;10.356;2023-03-07T08:25:16;6.40;98.70
7046;DHT22;3564;53.326;10.356;2023-03-07T08:27:42;6.40;98.70
7046;DHT22;3564;53.326;10.356;2023-03-07T08:30:08;6.40;98.90
7046;DHT22;3564;53.326;10.356;2023-03-07T08:32:34;6.50;98.70
7046;DHT22;3564;53.326;10.356;2023-03-07T08:34:59;6.50;98.60
7046;DHT22;3564;53.326;10.356;2023-03-07T08:37:25;6.50;98.50
7046;DHT22;3564;53.326;10.356;2023-03-07T08:39:51;6.60;98.70
7046;DHT22;3564;53.326;10.356;2023-03-07T08:42:16;6.70;98.80
7046;DHT22;3564;53.326;10.356;2023-03-07T08:44:42;6.60;98.50
7046;DHT22;3564;53.326;10.356;2023-03-07T08:47:09;6.60;98.40
7046;DHT22;3564;53.326;10.356;2023-03-07T08:49:36;6.70;98.30
7046;DHT22;3564;53.326;10.356;2023-03-07T08:52:02;6.70;98.00
7046;DHT22;3564;53.326;10.356;2023-03-07T08:54:27;6.80;98.00
7046;DHT22;3564;53.326;10.356;2023-03-07T08:56:53;6.80;98.10
7046;DHT22;3564;53.326;10.356;2023-03-07T08:59:19;6.80;97.60
7046;DHT22;3564;53.326;10.356;2023-03-07T09:01:44;6.80;97.80
7046;DHT22;3564;53.326;10.356;2023-03-07T09:04:10;6.80;97.90
7046;DHT22;3564;53.326;10.356;2023-03-07T09:06:35;6.80;97.50
7046;DHT22;3564;53.326;10.356;2023-03-07T09:09:01;6.80;97.30
7046;DHT22;3564;53.326;10.356;2023-03-07T09:11:26;6.90;97.60
7046;DHT22;3564;53.326;10.356;2023-03-07T09:13:52;6.90;97.80
7046;DHT22;3564;53.326;10.356;2023-03-07T09:16:18;7.00;97.70
7046;DHT22;3564;53.326;10.356;2023-03-07T09:18:44;7.00;97.30
7046;DHT22;3564;53.326;10.356;2023-03-07T09:21:10;6.90;97.40
7046;DHT22;3564;53.326;10.356;2023-03-07T09:23:35;6.90;97.50
7046;DHT22;3564;53.326;10.356;2023-03-07T09:26:01;6.90;97.80
7046;DHT22;3564;53.326;10.356;2023-03-07T09:28:29;7.00;97.70
7046;DHT22;3564;53.326;10.356;2023-03-07T09:30:58;7.00;97.60
7046;DHT22;3564;53.326;10.356;2023-03-07T09:33:23;7.00;97.50
7046;DHT22;3564;53.326;10.356;2023-03-07T09:35:49;6.90;97.70
7046;DHT22;3564;53.326;10.356;2023-03-07T09:38:14;6.90;97.90
7046;DHT22;3564;53.326;10.356;2023-03-07T09:40:44;6.90;98.10
7046;DHT22;3564;53.326;10.356;2023-03-07T09:43:19;7.00;98.30
7046;DHT22;3564;53.326;10.356;2023-03-07T09:51:37;6.80;99.20
7046;DHT22;3564;53.326;10.356;2023-03-07T09:54:20;6.80;99.90
7046;DHT22;3564;53.326;10.356;2023-03-07T09:56:59;6.80;99.90
7046;DHT22;3564;53.326;10.356;2023-03-07T09:59:34;6.70;99.90
7046;DHT22;3564;53.326;10.356;2023-03-07T10:02:13;6.80;99.90
7046;DHT22;3564;53.326;10.356;2023-03-07T10:05:22;6.90;99.90
7046;DHT22;3564;53.326;10.356;2023-03-07T10:07:54;6.90;99.70
7046;DHT22;3564;53.326;10.356;2023-03-07T10:10:23;6.90;99.20
7046;DHT22;3564;53.326;10.356;2023-03-07T10:19:18;7.10;98.60
7046;DHT22;3564;53.326;10.356;2023-03-07T10:24:51;7.20;98.00
7046;DHT22;3564;53.326;10.356;2023-03-07T10:27:25;7.20;97.50
7046;DHT22;3564;53.326;10.356;2023-03-07T10:29:54;7.30;97.40
7046;DHT22;3564;53.326;10.356;2023-03-07T10:35:19;7.40;97.40
7046;DHT22;3564;53.326;10.356;2023-03-07T10:38:02;7.40;96.60
7046;DHT22;3564;53.326;10.356;2023-03-07T10:40:47;7.40;96.40
7046;DHT22;3564;53.326;10.356;2023-03-07T10:43:34;7.40;96.10
7046;DHT22;3564;53.326;10.356;2023-03-07T10:48:38;7.40;96.30
7046;DHT22;3564;53.326;10.356;2023-03-07T10:51:33;7.40;97.10
7046;DHT22;3564;53.326;10.356;2023-03-07T10:54:00;7.50;97.80
7046;DHT22;3564;53.326;10.356;2023-03-07T10:56:26;7.30;98.00
7046;DHT22;3564;53.326;10.356;2023-03-07T10:59:07;7.10;98.10
7046;DHT22;3564;53.326;10.356;2023-03-07T11:01:38;6.90;98.40
7046;DHT22;3564;53.326;10.356;2023-03-07T11:04:24;6.60;98.60
7046;DHT22;3564;53.326;10.356;2023-03-07T11:06:52;6.40;98.90
7046;DHT22;3564;53.326;10.356;2023-03-07T11:09:34;6.20;99.20
7046;DHT22;3564;53.326;10.356;2023-03-07T11:12:15;6.10;99.70
7046;DHT22;3564;53.326;10.356;2023-03-07T11:14:51;6.00;99.90
7046;DHT22;3564;53.326;10.356;2023-03-07T11:17:41;5.90;99.90
7046;DHT22;3564;53.326;10.356;2023-03-07T11:20:28;6.00;99.90
7046;DHT22;3564;53.326;10.356;2023-03-07T11:25:38;6.00;99.90
7046;DHT22;3564;53.326;10.356;2023-03-07T11:30:51;6.20;99.90
7046;DHT22;3564;53.326;10.356;2023-03-07T11:33:50;6.30;99.90
7046;DHT22;3564;53.326;10.356;2023-03-07T11:36:30;6.50;99.90
7046;DHT22;3564;53.326;10.356;2023-03-07T11:39:30;6.70;99.90
7046;DHT22;3564;53.326;10.356;2023-03-07T11:42:14;6.70;99.90
7046;DHT22;3564;53.326;10.356;2023-03-07T11:44:51;6.80;99.90
7046;DHT22;3564;53.326;10.356;2023-03-07T11:50:27;7.00;99.70
7046;DHT22;3564;53.326;10.356;2023-03-07T12:01:46;6.70;99.40
7046;DHT22;3564;53.326;10.356;2023-03-07T12:10:20;6.60;99.90
7046;DHT22;3564;53.326;10.356;2023-03-07T12:18:29;6.70;99.90
7046;DHT22;3564;53.326;10.356;2023-03-07T12:26:01;6.90;99.00
7046;DHT22;3564;53.326;10.356;2023-03-07T12:31:31;6.90;97.00
7046;DHT22;3564;53.326;10.356;2023-03-07T12:39:16;7.20;96.30
7046;DHT22;3564;53.326;10.356;2023-03-07T12:44:33;7.30;95.10
7046;DHT22;3564;53.326;10.356;2023-03-07T12:50:01;7.50;94.50
7046;DHT22;3564;53.326;10.356;2023-03-07T12:52:41;7.60;94.00
7046;DHT22;3564;53.326;10.356;2023-03-07T12:55:22;7.60;93.70
7046;DHT22;3564;53.326;10.356;2023-03-07T13:00:47;7.70;92.70
7046;DHT22;3564;53.326;10.356;2023-03-07T13:03:22;7.60;92.10
7046;DHT22;3564;53.326;10.356;2023-03-07T13:05:48;7.60;92.40
7046;DHT22;3564;53.326;10.356;2023-03-07T13:08:21;7.60;91.70
7046;DHT22;3564;53.326;10.356;2023-03-07T13:10:48;7.60;91.80
7046;DHT22;3564;53.326;10.356;2023-03-07T13:16:05;7.70;92.00
7046;DHT22;3564;53.326;10.356;2023-03-07T13:18:31;7.90;92.30
7046;DHT22;3564;53.326;10.356;2023-03-07T13:23:36;7.90;91.10
7046;DHT22;3564;53.326;10.356;2023-03-07T13:26:22;8.00;91.00
7046;DHT22;3564;53.326;10.356;2023-03-07T13:28:49;8.10;90.80
7046;DHT22;3564;53.326;10.356;2023-03-07T13:33:41;8.10;90.90
7046;DHT22;3564;53.326;10.356;2023-03-07T13:36:45;8.20;90.70
7046;DHT22;3564;53.326;10.356;2023-03-07T13:39:36;8.30;91.00
7046;DHT22;3564;53.326;10.356;2023-03-07T13:42:02;8.30;89.60
7046;DHT22;3564;53.326;10.356;2023-03-07T13:44:40;8.30;87.70
7046;DHT22;3564;53.326;10.356;2023-03-07T13:47:40;8.20;87.20
7046;DHT22;3564;53.326;10.356;2023-03-07T13:56:13;8.50;87.00
7046;DHT22;3564;53.326;10.356;2023-03-07T13:58:46;8.70;87.10
7046;DHT22;3564;53.326;10.356;2023-03-07T14:01:56;8.80;86.60
7046;DHT22;3564;53.326;10.356;2023-03-07T14:04:42;9.00;84.10
7046;DHT22;3564;53.326;10.356;2023-03-07T14:07:28;9.20;84.00
7046;DHT22;3564;53.326;10.356;2023-03-07T14:10:04;9.30;80.60
7046;DHT22;3564;53.326;10.356;2023-03-07T14:21:30;10.30;79.50
7046;DHT22;3564;53.326;10.356;2023-03-07T14:27:14;11.20;74.50
7046;DHT22;3564;53.326;10.356;2023-03-07T14:29:51;11.80;77.00
7046;DHT22;3564;53.326;10.356;2023-03-07T14:32:29;12.40;73.50
7046;DHT22;3564;53.326;10.356;2023-03-07T14:34:58;12.80;72.20
7046;DHT22;3564;53.326;10.356;2023-03-07T14:37:26;13.30;84.90
7046;DHT22;3564;53.326;10.356;2023-03-07T14:50:44;14.00;70.60
7046;DHT22;3564;53.326;10.356;2023-03-07T14:53:18;14.10;68.30
7046;DHT22;3564;53.326;10.356;2023-03-07T14:55:46;14.20;69.30
7046;DHT22;3564;53.326;10.356;2023-03-07T14:58:25;14.30;70.50
7046;DHT22;3564;53.326;10.356;2023-03-07T15:01:03;14.70;70.70
7046;DHT22;3564;53.326;10.356;2023-03-07T15:03:29;14.70;69.40
7046;DHT22;3564;53.326;10.356;2023-03-07T15:05:57;14.50;69.70
7046;DHT22;3564;53.326;10.356;2023-03-07T15:08:34;14.10;69.80
7046;DHT22;3564;53.326;10.356;2023-03-07T15:14:17;13.20;69.80
7046;DHT22;3564;53.326;10.356;2023-03-07T15:16:50;12.70;70.20
7046;DHT22;3564;53.326;10.356;2023-03-07T15:19:56;12.10;71.00
7046;DHT22;3564;53.326;10.356;2023-03-07T15:22:25;11.40;76.20
7046;DHT22;3564;53.326;10.356;2023-03-07T15:24:52;10.80;97.80
7046;DHT22;3564;53.326;10.356;2023-03-07T15:27:22;10.30;97.60
7046;DHT22;3564;53.326;10.356;2023-03-07T15:29:49;10.00;98.50
7046;DHT22;3564;53.326;10.356;2023-03-07T15:32:47;9.60;99.90
7046;DHT22;3564;53.326;10.356;2023-03-07T15:35:17;9.30;99.90
7046;DHT22;3564;53.326;10.356;2023-03-07T15:37:53;9.10;99.90
7046;DHT22;3564;53.326;10.356;2023-03-07T15:40:30;9.30;99.90
7046;DHT22;3564;53.326;10.356;2023-03-07T15:42:58;10.10;99.90
7046;DHT22;3564;53.326;10.356;2023-03-07T15:45:32;10.80;99.80
7046;DHT22;3564;53.326;10.356;2023-03-07T15:48:09;11.10;98.70
7046;DHT22;3564;53.326;10.356;2023-03-07T15:50:35;11.10;98.50
7046;DHT22;3564;53.326;10.356;2023-03-07T15:53:24;11.20;98.10
7046;DHT22;3564;53.326;10.356;2023-03-07T15:56:00;11.40;97.30
7046;DHT22;3564;53.326;10.356;2023-03-07T15:58:27;11.60;96.80
7046;DHT22;3564;53.326;10.356;2023-03-07T16:01:19;11.60;96.40
7046;DHT22;3564;53.326;10.356;2023-03-07T16:03:50;11.70;96.00
7046;DHT22;3564;53.326;10.356;2023-03-07T16:09:03;11.30;95.20
7046;DHT22;3564;53.326;10.356;2023-03-07T16:11:30;11.00;95.30
7046;DHT22;3564;53.326;10.356;2023-03-07T16:13:56;10.70;95.40
7046;DHT22;3564;53.326;10.356;2023-03-07T16:16:24;10.40;88.50
7046;DHT22;3564;53.326;10.356;2023-03-07T16:18:52;10.20;87.50
7046;DHT22;3564;53.326;10.356;2023-03-07T16:21:18;10.00;87.60
7046;DHT22;3564;53.326;10.356;2023-03-07T16:23:45;9.80;88.10
7046;DHT22;3564;53.326;10.356;2023-03-07T16:26:14;9.60;88.90
7046;DHT22;3564;53.326;10.356;2023-03-07T16:28:41;9.40;90.00
7046;DHT22;3564;53.326;10.356;2023-03-07T16:31:11;9.30;92.30
7046;DHT22;3564;53.326;10.356;2023-03-07T16:33:37;9.20;95.80
7046;DHT22;3564;53.326;10.356;2023-03-07T16:36:03;9.00;96.20
7046;DHT22;3564;53.326;10.356;2023-03-07T16:38:28;8.90;96.50
7046;DHT22;3564;53.326;10.356;2023-03-07T16:40:54;8.80;96.40
7046;DHT22;3564;53.326;10.356;2023-03-07T16:45:55;8.50;96.80
7046;DHT22;3564;53.326;10.356;2023-03-07T16:48:22;8.50;97.10
7046;DHT22;3564;53.326;10.356;2023-03-07T16:50:47;8.40;97.30
7046;DHT22;3564;53.326;10.356;2023-03-07T16:53:13;8.50;97.80
7046;DHT22;3564;53.326;10.356;2023-03-07T16:55:39;8.50;98.00
7046;DHT22;3564;53.326;10.356;2023-03-07T16:58:05;8.40;98.20
7046;DHT22;3564;53.326;10.356;2023-03-07T17:00:31;8.40;98.20
7046;DHT22;3564;53.326;10.356;2023-03-07T17:02:59;8.30;86.50
7046;DHT22;3564;53.326;10.356;2023-03-07T17:05:27;8.20;86.60
7046;DHT22;3564;53.326;10.356;2023-03-07T17:07:55;8.10;86.50
7046;DHT22;3564;53.326;10.356;2023-03-07T17:10:21;8.10;87.20
7046;DHT22;3564;53.326;10.356;2023-03-07T17:12:48;8.10;87.10
7046;DHT22;3564;53.326;10.356;2023-03-07T17:15:17;8.00;87.20
7046;DHT22;3564;53.326;10.356;2023-03-07T17:17:44;8.00;87.00
7046;DHT22;3564;53.326;10.356;2023-03-07T17:20:18;8.00;86.80
7046;DHT22;3564;53.326;10.356;2023-03-07T17:22:48;8.00;87.00
7046;DHT22;3564;53.326;10.356;2023-03-07T17:25:14;7.90;86.10
7046;DHT22;3564;53.326;10.356;2023-03-07T17:27:42;7.90;86.60
7046;DHT22;3564;53.326;10.356;2023-03-07T17:30:21;7.80;86.30
7046;DHT22;3564;53.326;10.356;2023-03-07T17:32:47;7.80;86.60
7046;DHT22;3564;53.326;10.356;2023-03-07T17:35:13;7.70;86.60
7046;DHT22;3564;53.326;10.356;2023-03-07T17:37:42;7.70;86.90
7046;DHT22;3564;53.326;10.356;2023-03-07T17:40:09;7.60;87.10
7046;DHT22;3564;53.326;10.356;2023-03-07T17:42:36;7.50;87.50
7046;DHT22;3564;53.326;10.356;2023-03-07T17:45:03;7.50;87.40
7046;DHT22;3564;53.326;10.356;2023-03-07T17:47:30;7.50;87.50
7046;DHT22;3564;53.326;10.356;2023-03-07T17:49:56;7.50;87.60
7046;DHT22;3564;53.326;10.356;2023-03-07T17:52:21;7.40;87.50
7046;DHT22;3564;53.326;10.356;2023-03-07T17:54:47;7.40;87.50
7046;DHT22;3564;53.326;10.356;2023-03-07T17:57:13;7.40;87.70
7046;DHT22;3564;53.326;10.356;2023-03-07T17:59:39;7.40;88.30
7046;DHT22;3564;53.326;10.356;2023-03-07T18:02:05;7.50;88.30
7046;DHT22;3564;53.326;10.356;2023-03-07T18:04:31;7.50;88.00
7046;DHT22;3564;53.326;10.356;2023-03-07T18:06:58;7.50;88.20
7046;DHT22;3564;53.326;10.356;2023-03-07T18:09:24;7.50;88.30
7046;DHT22;3564;53.326;10.356;2023-03-07T18:11:51;7.50;88.20
7046;DHT22;3564;53.326;10.356;2023-03-07T18:14:18;7.50;88.10
7046;DHT22;3564;53.326;10.356;2023-03-07T18:16:44;7.40;88.10